Impacts TAF Board
For situational awareness. Not to be used for flight planning purposes.
IDs:

KDMA - Tucson/Davis AFB, AZ, US

Issued at 1402 UTC 08 Aug 2020
Updated at 2050 UTC 08 Aug 2020
Potential Impact None Slight Moderate High
Time1958Z 08/21Z 08/22Z 08/23Z 09/00Z 09/01Z 09/02Z 09/03Z 09/04Z 09/05Z 09/06Z 09/07Z 09/08Z 09/09Z>>
Type OBS PRVL PRVL PRVL PRVL PRVL PRVL PRVL PRVL PRVL PRVL PRVL PRVL PRVL
VIS 10 >6 >6 >6 >6 >6 >6 >6 >6 >6 >6 >6 >6 >6
CIG -- -- -- -- -- -- -- -- -- -- -- -- -- --
Cover CLR SKC SKC SKC SCT SCT SCT SCT SCT SCT SCT SCT SKC SKC
FltCat VFR VFR VFR VFR VFR VFR VFR VFR VFR VFR VFR VFR VFR VFR
WX -- -- -- -- -- -- -- -- -- -- -- -- -- --
WDir 290 160 160 160 290 290 290 290 290 290 290 290 VRB VRB
WSpd 8 9 9 9 9 9 9 9 9 9 9 9 6 6
WGst -- -- -- -- -- -- -- -- -- -- -- -- -- --
Raw TAF
TAF KDMA 081402Z 0814/0920 16009KT 9999 SKC QNH2990INS
  BECMG 0900/0901 29009KT 9999 SCT130 QNH2992INS
  BECMG 0908/0909 VRB06KT 9999 SKC QNH2995INS TX39/0821Z TN23/0912Z


Raw METAR
KDMA 081958Z AUTO 29008KT 10SM CLR 38/08 A2998 RMK AO2 SLP100 T03840081 FZRANO $
KDMA 081858Z AUTO 27005KT 10SM CLR 37/08 A3000 RMK AO2 SLP106 T03740082 FZRANO $
KDMA 081758Z AUTO 35005KT 10SM CLR 36/10 A3002 RMK AO2 SLP113 T03580100 10358 20254 57007 FZRANO $

METAR Board
For situational awareness. Not to be used for flight planning purposes.